createdAt,value
2018-03-26T00:00:56.205Z,51.40
2018-03-26T00:01:56.230Z,52.90
2018-03-26T00:02:56.243Z,51.10
2018-03-26T00:03:56.271Z,49.40
2018-03-26T00:04:56.288Z,46.70
2018-03-26T00:05:56.270Z,45.90
2018-03-26T00:06:56.288Z,44.10
2018-03-26T00:07:56.316Z,43.80
2018-03-26T00:08:56.373Z,43.10
2018-03-26T00:09:56.345Z,43.70
2018-03-26T00:10:56.348Z,44.60
2018-03-26T00:11:56.374Z,44.80
2018-03-26T00:12:56.385Z,46.20
2018-03-26T00:13:56.388Z,46.40
2018-03-26T00:14:56.405Z,43.30
2018-03-26T00:15:56.457Z,44.20
2018-03-26T00:16:56.456Z,43.50
2018-03-26T00:17:56.450Z,43.20
2018-03-26T00:18:56.489Z,42.80
2018-03-26T00:19:56.478Z,43.90
2018-03-26T00:20:56.569Z,44.10
2018-03-26T00:21:56.504Z,43.00
2018-03-26T00:22:56.527Z,43.10
2018-03-26T00:23:56.558Z,41.80
2018-03-26T00:24:56.552Z,39.00
2018-03-26T00:25:56.578Z,39.70
2018-03-26T00:26:56.573Z,37.00
2018-03-26T00:27:56.597Z,39.70
2018-03-26T00:28:56.628Z,38.40
2018-03-26T00:29:56.657Z,37.80
2018-03-26T00:30:56.674Z,38.00
2018-03-26T00:31:56.655Z,38.30
2018-03-26T00:32:56.682Z,38.20
2018-03-26T00:33:56.694Z,38.10
2018-03-26T00:34:56.703Z,37.00
2018-03-26T00:35:56.709Z,37.10
2018-03-26T00:36:56.730Z,34.80
2018-03-26T00:37:56.750Z,34.10
2018-03-26T00:38:56.750Z,34.20
2018-03-26T00:39:56.767Z,33.10
2018-03-26T00:40:56.815Z,34.00
2018-03-26T00:41:56.803Z,32.70
2018-03-26T00:42:56.805Z,32.20
2018-03-26T00:43:56.824Z,32.90
2018-03-26T00:44:56.861Z,32.90
2018-03-26T00:45:56.872Z,33.30
2018-03-26T00:46:56.877Z,31.90
2018-03-26T00:47:56.891Z,33.70
2018-03-26T00:48:56.905Z,34.90
2018-03-26T00:49:56.923Z,33.90
2018-03-26T00:50:56.928Z,32.40
2018-03-26T00:51:57.006Z,33.50
2018-03-26T00:52:56.968Z,33.80
2018-03-26T00:53:56.975Z,33.00
2018-03-26T00:54:56.997Z,33.40
2018-03-26T00:55:57.006Z,32.90
2018-03-26T00:56:57.044Z,31.80
2018-03-26T00:57:57.034Z,33.20
2018-03-26T00:58:57.104Z,31.50
2018-03-26T00:59:57.061Z,32.60
2018-03-26T01:00:57.113Z,31.50
2018-03-26T01:01:57.108Z,32.40
2018-03-26T01:02:57.121Z,31.30
2018-03-26T01:03:57.195Z,32.10
2018-03-26T01:04:57.130Z,32.50
2018-03-26T01:05:57.167Z,32.90
2018-03-26T01:06:57.180Z,31.90
2018-03-26T01:07:57.210Z,31.50
2018-03-26T01:08:57.196Z,30.70
2018-03-26T01:09:57.249Z,31.60
2018-03-26T01:10:57.257Z,32.80
2018-03-26T01:11:57.237Z,32.60
2018-03-26T01:12:57.257Z,31.90
2018-03-26T01:13:57.271Z,33.70
2018-03-26T01:14:57.291Z,33.00
2018-03-26T01:15:57.290Z,31.70
2018-03-26T01:16:57.314Z,33.20
2018-03-26T01:17:57.327Z,30.40
2018-03-26T01:18:57.370Z,31.50
2018-03-26T01:19:57.353Z,30.60
2018-03-26T01:20:57.365Z,30.50
2018-03-26T01:21:57.426Z,31.70
2018-03-26T01:22:57.396Z,31.80
2018-03-26T01:23:57.423Z,32.20
2018-03-26T01:24:57.454Z,31.90
2018-03-26T01:25:57.470Z,32.80
2018-03-26T01:26:57.472Z,31.20
2018-03-26T01:27:57.478Z,31.30
2018-03-26T01:28:57.517Z,32.20
2018-03-26T01:29:57.503Z,31.80
2018-03-26T01:30:57.532Z,32.20
2018-03-26T01:31:57.532Z,31.10
2018-03-26T01:32:57.552Z,31.40
2018-03-26T01:33:57.578Z,31.50
2018-03-26T01:34:57.599Z,32.80
2018-03-26T01:35:57.628Z,31.80
2018-03-26T01:36:57.609Z,32.20
2018-03-26T01:37:57.654Z,30.90
2018-03-26T01:38:57.627Z,32.50
2018-03-26T01:39:57.652Z,31.20
2018-03-26T01:40:57.693Z,30.60
2018-03-26T01:41:57.725Z,31.80
2018-03-26T01:42:57.688Z,30.70
2018-03-26T01:43:57.723Z,32.00
2018-03-26T01:44:57.734Z,32.00
2018-03-26T01:45:57.751Z,31.70
2018-03-26T01:46:57.755Z,32.50
2018-03-26T01:47:57.774Z,31.20
2018-03-26T01:48:57.780Z,31.80
2018-03-26T01:49:57.805Z,32.40
2018-03-26T01:50:57.839Z,32.20
2018-03-26T01:51:57.818Z,31.50
2018-03-26T01:52:57.868Z,31.50
2018-03-26T01:53:57.852Z,31.60
2018-03-26T01:54:57.871Z,31.30
2018-03-26T01:55:57.884Z,31.50
2018-03-26T01:56:57.910Z,31.80
2018-03-26T01:57:57.920Z,31.80
2018-03-26T01:58:58.079Z,32.80
2018-03-26T01:59:57.953Z,32.10
2018-03-26T02:00:57.963Z,32.70
2018-03-26T02:01:57.968Z,32.40
2018-03-26T02:02:58.004Z,31.20
2018-03-26T02:03:58.003Z,32.80
2018-03-26T02:04:58.040Z,31.70
2018-03-26T02:05:58.043Z,32.30
2018-03-26T02:06:58.047Z,32.40
2018-03-26T02:07:58.062Z,31.80
2018-03-26T02:08:58.095Z,31.30
2018-03-26T02:09:58.091Z,31.50
2018-03-26T02:10:58.136Z,31.40
2018-03-26T02:11:58.126Z,32.30
2018-03-26T02:12:58.140Z,33.30
2018-03-26T02:13:58.152Z,31.20
2018-03-26T02:14:58.207Z,32.20
2018-03-26T02:15:58.179Z,32.60
2018-03-26T02:16:58.196Z,31.70
2018-03-26T02:17:58.229Z,32.80
2018-03-26T02:18:58.227Z,31.30
2018-03-26T02:19:58.236Z,31.90
2018-03-26T02:20:58.276Z,31.10
2018-03-26T02:21:58.285Z,32.00
2018-03-26T02:22:58.380Z,33.00
2018-03-26T02:23:58.315Z,31.20
2018-03-26T02:24:58.314Z,31.70
2018-03-26T02:25:58.350Z,32.40
2018-03-26T02:26:58.381Z,32.00
2018-03-26T02:27:58.358Z,32.20
2018-03-26T02:28:58.365Z,33.00
2018-03-26T02:29:58.396Z,32.10
2018-03-26T02:30:58.403Z,32.00
2018-03-26T02:31:58.415Z,32.50
2018-03-26T02:32:58.434Z,32.50
2018-03-26T02:33:58.445Z,32.80
2018-03-26T02:34:58.465Z,31.80
2018-03-26T02:35:58.481Z,32.00
2018-03-26T02:36:58.488Z,32.90
2018-03-26T02:37:58.514Z,32.40
2018-03-26T02:38:58.526Z,31.30
2018-03-26T02:39:58.527Z,32.60
2018-03-26T02:40:58.570Z,31.40
2018-03-26T02:41:58.586Z,30.50
2018-03-26T02:42:58.579Z,31.30
2018-03-26T02:43:58.607Z,30.00
2018-03-26T02:44:58.613Z,31.40
2018-03-26T02:45:58.630Z,30.70
2018-03-26T02:46:58.643Z,32.30
2018-03-26T02:47:58.663Z,33.40
2018-03-26T02:48:58.679Z,32.80
2018-03-26T02:49:58.711Z,32.50
2018-03-26T02:50:58.716Z,31.70
2018-03-26T02:51:58.735Z,32.90
2018-03-26T02:52:58.748Z,32.70
2018-03-26T02:53:58.737Z,31.90
2018-03-26T02:54:58.756Z,33.30
2018-03-26T02:55:58.766Z,32.10
2018-03-26T02:56:58.793Z,32.90
2018-03-26T02:57:58.805Z,34.20
2018-03-26T02:58:58.852Z,31.10
2018-03-26T02:59:58.845Z,33.00
2018-03-26T03:00:58.861Z,34.30
2018-03-26T03:01:58.883Z,33.10
2018-03-26T03:02:58.873Z,33.50
2018-03-26T03:03:58.903Z,33.10
2018-03-26T03:04:58.911Z,34.10
2018-03-26T03:05:58.915Z,34.40
2018-03-26T03:06:58.951Z,34.40
2018-03-26T03:07:58.981Z,34.60
2018-03-26T03:08:58.965Z,32.40
2018-03-26T03:09:58.977Z,33.70
2018-03-26T03:10:58.989Z,33.80
2018-03-26T03:11:59.021Z,34.30
2018-03-26T03:12:59.053Z,34.20
2018-03-26T03:13:59.054Z,33.50
2018-03-26T03:14:59.049Z,32.60
2018-03-26T03:15:59.071Z,34.20
2018-03-26T03:16:59.098Z,34.00
2018-03-26T03:17:59.101Z,33.70
2018-03-26T03:18:59.122Z,33.70
2018-03-26T03:19:59.151Z,34.40
2018-03-26T03:20:59.153Z,34.40
2018-03-26T03:21:59.178Z,33.80
2018-03-26T03:22:59.199Z,32.50
2018-03-26T03:23:59.185Z,34.30
2018-03-26T03:24:59.213Z,33.60
2018-03-26T03:25:59.204Z,34.70
2018-03-26T03:26:59.242Z,34.40
2018-03-26T03:27:59.244Z,34.30
2018-03-26T03:28:59.286Z,35.90
2018-03-26T03:29:59.287Z,35.10
2018-03-26T03:30:59.349Z,34.80
2018-03-26T03:31:59.300Z,34.90
2018-03-26T03:32:59.312Z,37.60
2018-03-26T03:33:59.350Z,36.20
2018-03-26T03:34:59.345Z,35.90
2018-03-26T03:35:59.369Z,36.40
2018-03-26T03:36:59.373Z,37.00
2018-03-26T03:37:59.384Z,36.20
2018-03-26T03:38:59.405Z,33.50
2018-03-26T03:39:59.420Z,34.50
2018-03-26T03:40:59.428Z,34.10
2018-03-26T03:41:59.451Z,34.20
2018-03-26T03:42:59.460Z,35.40
2018-03-26T03:43:59.504Z,35.10
2018-03-26T03:44:59.489Z,36.00
2018-03-26T03:45:59.523Z,36.60
2018-03-26T03:46:59.532Z,36.30
2018-03-26T03:47:59.535Z,37.70
2018-03-26T03:48:59.620Z,34.80
2018-03-26T03:49:59.583Z,37.20
2018-03-26T03:50:59.615Z,37.60
2018-03-26T03:51:59.597Z,37.10
2018-03-26T03:52:59.625Z,35.60
2018-03-26T03:53:59.620Z,36.60
2018-03-26T03:54:59.694Z,37.00
2018-03-26T03:55:59.655Z,36.20
2018-03-26T03:56:59.695Z,36.50
2018-03-26T03:57:59.694Z,36.60
2018-03-26T03:58:59.751Z,35.80
2018-03-26T03:59:59.716Z,35.20
2018-03-26T04:00:59.731Z,35.40
2018-03-26T04:01:59.757Z,34.90
2018-03-26T04:02:59.764Z,35.60
2018-03-26T04:03:59.839Z,34.90
2018-03-26T04:04:59.806Z,34.30
2018-03-26T04:05:59.805Z,35.00
2018-03-26T04:06:59.824Z,35.70
2018-03-26T04:07:59.831Z,37.10
2018-03-26T04:08:59.849Z,36.60
2018-03-26T04:09:59.863Z,37.00
2018-03-26T04:10:59.886Z,34.90
2018-03-26T04:11:59.909Z,35.20
2018-03-26T04:12:59.912Z,34.10
2018-03-26T04:13:59.920Z,34.80
2018-03-26T04:14:59.938Z,33.70
2018-03-26T04:15:59.975Z,34.30
2018-03-26T04:16:59.967Z,34.70
2018-03-26T04:17:59.994Z,34.50
2018-03-26T04:18:59.989Z,33.70
2018-03-26T04:20:00.025Z,34.50
2018-03-26T04:21:00.035Z,35.20
2018-03-26T04:22:00.046Z,33.50
2018-03-26T04:23:00.061Z,35.50
2018-03-26T04:24:00.078Z,35.30
2018-03-26T04:25:00.086Z,33.70
2018-03-26T04:26:00.098Z,34.10
2018-03-26T04:27:00.155Z,34.40
2018-03-26T04:28:00.127Z,35.20
2018-03-26T04:29:00.139Z,35.30
2018-03-26T04:30:00.171Z,36.40
2018-03-26T04:31:00.190Z,35.10
2018-03-26T04:32:00.205Z,35.40
2018-03-26T04:33:00.200Z,34.00
2018-03-26T04:34:00.221Z,37.30
2018-03-26T04:35:00.229Z,37.10
2018-03-26T04:36:00.242Z,36.40
2018-03-26T04:37:00.282Z,36.10
2018-03-26T04:38:00.273Z,36.60
2018-03-26T04:39:00.314Z,36.20
2018-03-26T04:40:00.365Z,37.80
2018-03-26T04:41:00.328Z,36.20
2018-03-26T04:42:00.328Z,35.70
2018-03-26T04:43:00.345Z,35.40
2018-03-26T04:44:00.397Z,36.20
2018-03-26T04:45:00.379Z,37.30
2018-03-26T04:46:00.391Z,38.70
2018-03-26T04:47:00.423Z,37.60
2018-03-26T04:48:00.432Z,36.30
2018-03-26T04:49:00.443Z,34.60
2018-03-26T04:50:00.482Z,35.70
2018-03-26T04:51:00.490Z,35.60
2018-03-26T04:52:00.505Z,35.40
2018-03-26T04:53:00.564Z,35.10
2018-03-26T04:54:00.527Z,34.60
2018-03-26T04:55:00.539Z,34.90
2018-03-26T04:56:00.570Z,34.30
2018-03-26T04:57:00.566Z,35.90
2018-03-26T04:58:00.571Z,36.10
2018-03-26T04:59:00.594Z,34.50
2018-03-26T05:00:00.611Z,36.10
2018-03-26T05:01:00.618Z,35.00
2018-03-26T05:02:00.650Z,35.50
2018-03-26T05:03:00.653Z,35.60
2018-03-26T05:04:00.680Z,36.10
2018-03-26T05:05:00.677Z,35.10
2018-03-26T05:06:00.728Z,36.90
2018-03-26T05:07:00.717Z,35.70
2018-03-26T05:08:00.755Z,35.60
2018-03-26T05:09:00.756Z,36.50
2018-03-26T05:10:00.832Z,35.80
2018-03-26T05:11:00.767Z,35.30
2018-03-26T05:12:00.791Z,35.50
2018-03-26T05:13:00.807Z,34.80
2018-03-26T05:14:00.823Z,36.50
2018-03-26T05:15:00.820Z,36.40
2018-03-26T05:16:00.848Z,35.60
2018-03-26T05:17:00.860Z,36.20
2018-03-26T05:18:00.913Z,37.20
2018-03-26T05:19:00.897Z,37.60
2018-03-26T05:20:00.929Z,37.30
2018-03-26T05:21:00.930Z,39.60
2018-03-26T05:22:00.944Z,37.70
2018-03-26T05:23:00.956Z,38.30
2018-03-26T05:24:00.976Z,40.60
2018-03-26T05:25:01.029Z,40.30
2018-03-26T05:26:00.989Z,38.10
2018-03-26T05:27:01.012Z,38.70
2018-03-26T05:28:01.047Z,38.80
2018-03-26T05:29:01.038Z,37.40
2018-03-26T05:30:01.060Z,36.70
2018-03-26T05:31:01.080Z,36.10
2018-03-26T05:32:01.080Z,37.60
2018-03-26T05:33:01.103Z,36.50
2018-03-26T05:34:01.143Z,38.90
2018-03-26T05:35:01.132Z,39.20
2018-03-26T05:36:01.170Z,38.90
2018-03-26T05:37:01.168Z,38.00
2018-03-26T05:38:01.207Z,38.40
2018-03-26T05:39:01.209Z,38.60
2018-03-26T05:40:01.236Z,39.30
2018-03-26T05:41:01.239Z,41.30
2018-03-26T05:42:01.226Z,38.80
2018-03-26T05:43:01.245Z,38.90
2018-03-26T05:44:01.275Z,38.80
2018-03-26T05:45:01.294Z,39.60
2018-03-26T05:46:01.299Z,38.40
2018-03-26T05:47:01.346Z,39.60
2018-03-26T05:48:01.325Z,39.70
2018-03-26T05:49:01.332Z,41.30
2018-03-26T05:50:01.351Z,40.80
2018-03-26T05:51:01.357Z,41.30
2018-03-26T05:52:01.385Z,41.50
2018-03-26T05:53:01.449Z,41.90
2018-03-26T05:54:01.407Z,41.30
2018-03-26T05:55:01.444Z,43.10
2018-03-26T05:56:01.451Z,43.60
2018-03-26T05:57:01.459Z,41.30
2018-03-26T05:58:01.466Z,42.90
2018-03-26T05:59:01.482Z,40.70
2018-03-26T06:00:01.498Z,40.30
2018-03-26T06:01:01.516Z,40.40
2018-03-26T06:02:01.528Z,40.30
2018-03-26T06:03:01.541Z,38.50
2018-03-26T06:04:01.571Z,39.90
2018-03-26T06:05:01.578Z,39.20
2018-03-26T06:06:01.590Z,37.00
2018-03-26T06:07:01.623Z,38.30
2018-03-26T06:08:01.682Z,37.30
2018-03-26T06:09:01.630Z,38.40
2018-03-26T06:10:01.641Z,38.30
2018-03-26T06:11:01.661Z,36.80
2018-03-26T06:12:01.682Z,37.40
2018-03-26T06:13:01.686Z,36.00
2018-03-26T06:14:01.699Z,37.30
2018-03-26T06:15:01.726Z,37.40
2018-03-26T06:16:01.734Z,36.10
2018-03-26T06:17:01.759Z,37.00
2018-03-26T06:18:01.775Z,37.50
2018-03-26T06:19:01.779Z,37.10
2018-03-26T06:20:01.800Z,35.90
2018-03-26T06:21:01.807Z,36.00
2018-03-26T06:22:01.820Z,37.90
2018-03-26T06:23:01.893Z,37.00
2018-03-26T06:24:01.856Z,38.40
2018-03-26T06:25:01.882Z,38.10
2018-03-26T06:26:01.886Z,37.90
2018-03-26T06:27:01.913Z,38.70
2018-03-26T06:28:01.917Z,38.00
2018-03-26T06:29:01.983Z,37.10
2018-03-26T06:30:01.979Z,37.00
2018-03-26T06:31:02.059Z,37.10
2018-03-26T06:32:01.979Z,35.70
2018-03-26T06:33:02.006Z,37.90
2018-03-26T06:34:02.034Z,37.20
2018-03-26T06:35:02.045Z,37.20
2018-03-26T06:36:02.041Z,38.70
2018-03-26T06:37:02.049Z,36.80
2018-03-26T06:38:02.097Z,39.20
2018-03-26T06:39:02.088Z,38.80
2018-03-26T06:40:02.125Z,36.90
2018-03-26T06:41:02.121Z,37.60
2018-03-26T06:42:02.141Z,38.20
2018-03-26T06:43:02.177Z,37.20
2018-03-26T06:44:02.184Z,38.50
2018-03-26T06:45:02.176Z,37.90
2018-03-26T06:46:02.203Z,37.20
2018-03-26T06:47:02.245Z,39.40
2018-03-26T06:48:02.270Z,38.10
2018-03-26T06:49:02.241Z,37.10
2018-03-26T06:50:02.251Z,36.40
2018-03-26T06:51:02.281Z,36.60
2018-03-26T06:52:02.282Z,37.50
2018-03-26T06:53:02.332Z,38.20
2018-03-26T06:54:02.332Z,38.10
2018-03-26T06:55:02.349Z,38.60
2018-03-26T06:56:02.352Z,38.70
2018-03-26T06:57:02.367Z,39.10
2018-03-26T06:58:02.414Z,38.30
2018-03-26T06:59:02.401Z,38.80
2018-03-26T07:00:02.428Z,37.80
2018-03-26T07:01:02.434Z,38.70
2018-03-26T07:02:02.458Z,39.80
2018-03-26T07:03:02.467Z,40.00
2018-03-26T07:04:02.476Z,39.10
2018-03-26T07:05:02.491Z,40.10
2018-03-26T07:06:02.526Z,40.40
2018-03-26T07:07:02.549Z,40.90
2018-03-26T07:08:02.549Z,40.30
2018-03-26T07:09:02.558Z,40.90
2018-03-26T07:10:02.588Z,43.60
2018-03-26T07:11:02.601Z,49.40
2018-03-26T07:12:02.607Z,47.90
2018-03-26T07:13:02.634Z,49.80
2018-03-26T07:14:02.634Z,47.70
2018-03-26T07:15:02.696Z,50.00
2018-03-26T07:16:02.679Z,50.50
2018-03-26T07:17:02.705Z,48.90
2018-03-26T07:18:02.723Z,49.10
2018-03-26T07:19:02.724Z,49.70
2018-03-26T07:20:02.742Z,50.30
2018-03-26T07:21:02.778Z,49.60
2018-03-26T07:22:02.775Z,49.80
2018-03-26T07:23:02.803Z,49.40
2018-03-26T07:24:02.803Z,48.10
2018-03-26T07:25:02.847Z,50.60
2018-03-26T07:26:02.836Z,48.60
2018-03-26T07:27:02.859Z,49.90
2018-03-26T07:28:02.871Z,48.90
2018-03-26T07:29:02.903Z,49.30
2018-03-26T07:30:02.926Z,48.20
2018-03-26T07:31:02.935Z,49.70
2018-03-26T07:32:02.937Z,49.10
2018-03-26T07:33:02.960Z,48.60
2018-03-26T07:34:03.001Z,48.30
2018-03-26T07:35:03.003Z,48.50
2018-03-26T07:36:03.006Z,47.10
2018-03-26T07:37:03.017Z,49.40
2018-03-26T07:38:03.035Z,49.50
2018-03-26T07:39:03.053Z,50.00
2018-03-26T07:40:03.064Z,49.80
2018-03-26T07:41:03.108Z,48.80
2018-03-26T07:42:03.141Z,49.40
2018-03-26T07:43:03.141Z,47.80
2018-03-26T07:44:03.158Z,46.40
2018-03-26T07:45:03.206Z,47.40
2018-03-26T07:46:03.176Z,47.80
2018-03-26T07:47:03.195Z,46.10
2018-03-26T07:48:03.219Z,44.50
2018-03-26T07:49:03.234Z,43.20
2018-03-26T07:50:03.267Z,46.10
2018-03-26T07:51:03.295Z,45.60
2018-03-26T07:52:03.280Z,46.60
2018-03-26T07:53:03.307Z,45.70
2018-03-26T07:54:03.327Z,44.60
2018-03-26T07:55:03.330Z,45.70
2018-03-26T07:56:03.353Z,46.50
2018-03-26T07:57:03.382Z,46.10
2018-03-26T07:58:03.387Z,45.90
2018-03-26T07:59:03.391Z,44.60
2018-03-26T08:00:03.426Z,44.50
2018-03-26T08:01:03.438Z,45.10
2018-03-26T08:02:03.475Z,44.90
2018-03-26T08:03:03.472Z,44.80
2018-03-26T08:04:03.502Z,44.60
2018-03-26T08:05:03.526Z,45.10
2018-03-26T08:06:03.527Z,44.20
2018-03-26T08:07:03.540Z,45.70
2018-03-26T08:08:03.555Z,44.60
2018-03-26T08:09:03.574Z,44.70
2018-03-26T08:10:03.602Z,44.60
2018-03-26T08:11:03.637Z,44.40
2018-03-26T08:12:03.660Z,43.90
2018-03-26T08:13:03.663Z,45.80
2018-03-26T08:14:03.673Z,44.70
2018-03-26T08:15:03.673Z,45.40
2018-03-26T08:16:03.700Z,44.70
2018-03-26T08:17:03.716Z,44.50
2018-03-26T08:18:03.727Z,45.40
2018-03-26T08:19:03.742Z,47.10
2018-03-26T08:20:03.772Z,44.60
2018-03-26T08:21:03.762Z,44.60
2018-03-26T08:22:03.789Z,41.80
2018-03-26T08:23:03.815Z,43.40
2018-03-26T08:24:03.831Z,42.60
2018-03-26T08:25:03.860Z,43.60
2018-03-26T08:26:03.849Z,43.70
2018-03-26T08:27:03.872Z,43.60
2018-03-26T08:28:03.883Z,43.90
2018-03-26T08:29:03.917Z,43.50
2018-03-26T08:30:03.938Z,41.70
2018-03-26T08:31:03.984Z,40.90
2018-03-26T08:32:03.958Z,40.50
2018-03-26T08:33:03.988Z,37.80
2018-03-26T08:34:03.985Z,37.20
2018-03-26T08:35:04.006Z,34.90
2018-03-26T08:36:04.038Z,34.50
2018-03-26T08:37:04.041Z,30.60
2018-03-26T08:38:04.075Z,30.70
2018-03-26T08:39:04.074Z,32.20
2018-03-26T08:40:04.098Z,35.20
2018-03-26T08:41:04.118Z,35.40
2018-03-26T08:42:04.123Z,36.60
2018-03-26T08:43:04.145Z,34.00
2018-03-26T08:44:04.172Z,41.10
2018-03-26T08:45:04.167Z,41.30
2018-03-26T08:46:04.198Z,41.70
2018-03-26T08:47:04.217Z,41.20
2018-03-26T08:48:04.237Z,41.10
2018-03-26T08:49:04.242Z,41.00
2018-03-26T08:50:04.335Z,43.70
2018-03-26T08:51:04.277Z,45.70
2018-03-26T08:52:04.308Z,44.10
2018-03-26T08:53:04.309Z,44.50
2018-03-26T08:54:04.324Z,43.90
2018-03-26T08:55:04.356Z,41.40
2018-03-26T08:56:04.372Z,42.20
2018-03-26T08:57:04.414Z,40.40
2018-03-26T08:58:04.406Z,42.10
2018-03-26T08:59:04.426Z,39.30
2018-03-26T09:00:04.436Z,38.60
2018-03-26T09:01:04.459Z,37.50
2018-03-26T09:02:04.472Z,37.40
2018-03-26T09:03:04.494Z,39.20
2018-03-26T09:04:04.506Z,37.70
2018-03-26T09:05:04.525Z,36.90
2018-03-26T09:06:04.616Z,34.50
2018-03-26T09:07:04.588Z,36.30
2018-03-26T09:08:04.587Z,34.40
2018-03-26T09:09:04.600Z,31.60
2018-03-26T09:10:04.618Z,33.70
2018-03-26T09:11:04.667Z,30.90
2018-03-26T09:12:04.683Z,23.80
2018-03-26T09:13:04.678Z,19.80
2018-03-26T09:14:04.696Z,18.40
2018-03-26T09:15:04.708Z,18.00
2018-03-26T09:16:04.747Z,14.90
2018-03-26T09:17:04.755Z,15.30
2018-03-26T09:18:04.767Z,15.70
2018-03-26T09:19:04.784Z,16.40
2018-03-26T09:20:04.831Z,17.80
2018-03-26T09:21:04.822Z,16.10
2018-03-26T09:22:04.855Z,15.90
2018-03-26T09:23:04.882Z,16.40
2018-03-26T09:24:04.913Z,16.60
2018-03-26T09:25:04.898Z,17.50
2018-03-26T09:26:04.923Z,17.70
2018-03-26T09:27:04.939Z,17.70
2018-03-26T09:28:04.979Z,19.00
2018-03-26T09:29:05.002Z,20.20
2018-03-26T09:30:05.023Z,19.70
2018-03-26T09:31:05.044Z,19.20
2018-03-26T09:32:05.076Z,17.50
2018-03-26T09:33:05.078Z,19.30
2018-03-26T09:34:05.134Z,19.40
2018-03-26T09:35:05.103Z,20.40
2018-03-26T09:36:05.186Z,19.80
2018-03-26T09:37:05.119Z,20.00
2018-03-26T09:38:05.143Z,16.50
2018-03-26T09:39:05.164Z,16.60
2018-03-26T09:40:05.208Z,16.40
2018-03-26T09:41:05.208Z,17.80
2018-03-26T09:42:05.211Z,21.60
2018-03-26T09:43:05.270Z,36.70
2018-03-26T09:44:05.258Z,33.00
2018-03-26T09:45:05.313Z,27.30
2018-03-26T09:46:05.295Z,18.40
2018-03-26T09:47:05.370Z,18.30
2018-03-26T09:48:05.337Z,18.00
2018-03-26T09:49:05.332Z,15.70
2018-03-26T09:50:05.380Z,16.30
2018-03-26T09:51:05.412Z,15.60
2018-03-26T09:52:05.400Z,17.00
2018-03-26T09:53:05.419Z,16.90
2018-03-26T09:54:05.438Z,16.50
2018-03-26T09:55:05.440Z,20.70
2018-03-26T09:56:05.475Z,17.10
2018-03-26T09:57:05.503Z,17.30
2018-03-26T09:58:05.505Z,16.80
2018-03-26T09:59:05.522Z,15.80
2018-03-26T10:00:05.596Z,16.70
2018-03-26T10:01:05.604Z,16.40
2018-03-26T10:02:05.587Z,14.80
2018-03-26T10:03:05.594Z,14.10
2018-03-26T10:04:05.616Z,14.00
2018-03-26T10:05:05.660Z,14.60
2018-03-26T10:06:05.667Z,14.80
2018-03-26T10:07:05.688Z,13.80
2018-03-26T10:08:05.714Z,14.70
2018-03-26T10:09:05.749Z,15.40
2018-03-26T10:10:05.715Z,15.30
2018-03-26T10:11:05.759Z,14.90
2018-03-26T10:12:05.749Z,15.70
2018-03-26T10:13:05.800Z,15.20
2018-03-26T10:14:05.859Z,15.10
2018-03-26T10:15:05.814Z,15.10
2018-03-26T10:16:05.892Z,15.70
2018-03-26T10:17:05.846Z,15.70
2018-03-26T10:18:05.881Z,16.30
2018-03-26T10:19:05.888Z,16.90
2018-03-26T10:20:05.949Z,19.80
2018-03-26T10:21:05.932Z,18.40
2018-03-26T10:22:05.956Z,19.30
2018-03-26T10:23:05.957Z,20.30
2018-03-26T10:24:05.981Z,21.10
2018-03-26T10:25:06.005Z,21.00
2018-03-26T10:26:06.017Z,20.90
2018-03-26T10:27:06.041Z,21.30
2018-03-26T10:28:06.049Z,19.00
2018-03-26T10:29:06.075Z,20.30
2018-03-26T10:30:06.106Z,21.40
2018-03-26T10:31:06.109Z,21.50
2018-03-26T10:32:06.124Z,18.20
2018-03-26T10:33:06.181Z,18.60
2018-03-26T10:34:06.162Z,16.70
2018-03-26T10:35:06.198Z,15.30
2018-03-26T10:36:06.198Z,16.00
2018-03-26T10:37:06.262Z,16.00
2018-03-26T10:38:06.238Z,16.20
2018-03-26T10:39:06.301Z,16.60
2018-03-26T10:40:06.275Z,16.10
2018-03-26T10:41:06.324Z,16.20
2018-03-26T10:42:06.338Z,18.00
2018-03-26T10:43:06.335Z,20.00
2018-03-26T10:44:06.390Z,17.00
2018-03-26T10:45:06.372Z,15.10
2018-03-26T10:46:06.417Z,17.20
2018-03-26T10:47:06.434Z,16.00
2018-03-26T10:48:06.427Z,15.10
2018-03-26T10:49:06.454Z,16.10
2018-03-26T10:50:06.501Z,17.30
2018-03-26T10:51:06.496Z,17.00
2018-03-26T10:52:06.496Z,16.80
2018-03-26T10:53:06.572Z,21.90
2018-03-26T10:54:06.533Z,18.80
2018-03-26T10:55:06.558Z,29.70
2018-03-26T10:56:06.574Z,36.20
2018-03-26T10:57:06.600Z,29.20
2018-03-26T10:58:06.619Z,22.40
2018-03-26T10:59:06.637Z,12.80
2018-03-26T11:00:06.662Z,11.60
2018-03-26T11:01:06.675Z,12.50
2018-03-26T11:02:06.682Z,25.30
2018-03-26T11:03:06.704Z,13.70
2018-03-26T11:04:06.738Z,11.90
2018-03-26T11:05:06.747Z,14.50
2018-03-26T11:06:06.774Z,9.10
2018-03-26T11:07:06.795Z,8.30
2018-03-26T11:08:06.807Z,9.00
2018-03-26T11:09:06.823Z,9.40
2018-03-26T11:10:06.842Z,10.30
2018-03-26T11:11:06.910Z,11.10
2018-03-26T11:12:06.902Z,10.60
2018-03-26T11:13:06.895Z,10.70
2018-03-26T11:14:06.926Z,11.30
2018-03-26T11:15:06.947Z,11.20
2018-03-26T11:16:06.979Z,11.80
2018-03-26T11:17:06.976Z,11.90
2018-03-26T11:18:06.994Z,10.70
2018-03-26T11:19:07.002Z,11.60
2018-03-26T11:20:07.037Z,10.30
2018-03-26T11:21:07.045Z,9.70
2018-03-26T11:22:07.078Z,9.60
2018-03-26T11:23:07.119Z,11.10
2018-03-26T11:24:07.104Z,11.50
2018-03-26T11:25:07.142Z,11.10
2018-03-26T11:26:07.159Z,11.10
2018-03-26T11:27:07.156Z,11.70
2018-03-26T11:28:07.189Z,11.80
2018-03-26T11:29:07.205Z,11.80
2018-03-26T11:30:07.237Z,11.10
2018-03-26T11:31:07.241Z,10.60
2018-03-26T11:32:07.275Z,10.80
2018-03-26T11:33:07.293Z,8.90
2018-03-26T11:34:07.309Z,9.10
2018-03-26T11:35:07.344Z,8.80
2018-03-26T11:36:07.339Z,8.70
2018-03-26T11:37:07.416Z,9.00
2018-03-26T11:38:07.395Z,9.20
2018-03-26T11:39:07.399Z,8.60
2018-03-26T11:40:07.409Z,8.20
2018-03-26T11:41:07.435Z,9.00
2018-03-26T11:42:07.459Z,9.30
2018-03-26T11:43:07.464Z,9.70
2018-03-26T11:44:07.497Z,9.40
2018-03-26T11:45:07.501Z,9.10
2018-03-26T11:46:07.531Z,9.90
2018-03-26T11:47:07.538Z,10.40
2018-03-26T11:48:07.597Z,9.80
2018-03-26T11:49:07.631Z,10.00
2018-03-26T11:50:07.602Z,9.20
2018-03-26T11:51:07.634Z,9.40
2018-03-26T11:52:07.641Z,8.50
2018-03-26T11:53:07.734Z,8.50
2018-03-26T11:54:07.685Z,8.10
2018-03-26T11:55:07.695Z,7.20
2018-03-26T11:56:07.714Z,6.50
2018-03-26T11:57:07.746Z,5.40
2018-03-26T11:58:07.758Z,5.30
2018-03-26T11:59:07.822Z,5.10
2018-03-26T12:00:07.794Z,4.30
2018-03-26T12:01:07.843Z,4.70
2018-03-26T12:02:07.876Z,5.20
2018-03-26T12:03:07.859Z,5.00
2018-03-26T12:04:07.887Z,5.50
2018-03-26T12:05:07.903Z,6.80
2018-03-26T12:06:07.922Z,6.20
2018-03-26T12:07:07.923Z,5.80
2018-03-26T12:08:07.944Z,5.50
2018-03-26T12:09:07.976Z,4.70
2018-03-26T12:10:07.987Z,5.20
2018-03-26T12:11:07.996Z,5.30
2018-03-26T12:12:08.021Z,5.30
2018-03-26T12:13:08.089Z,4.80
2018-03-26T12:14:08.078Z,4.50
2018-03-26T12:15:08.153Z,4.40
2018-03-26T12:16:08.088Z,4.70
2018-03-26T12:17:08.156Z,5.40
2018-03-26T12:18:08.136Z,5.70
2018-03-26T12:19:08.142Z,5.80
2018-03-26T12:20:08.166Z,6.00
2018-03-26T12:21:08.207Z,6.10
2018-03-26T12:22:08.221Z,6.20
2018-03-26T12:23:08.215Z,5.80
2018-03-26T12:24:08.262Z,5.90
2018-03-26T12:25:08.268Z,5.90
2018-03-26T12:26:08.275Z,6.00
2018-03-26T12:27:08.299Z,5.80
2018-03-26T12:28:08.398Z,6.10
2018-03-26T12:29:08.351Z,6.10
2018-03-26T12:30:08.348Z,5.80
2018-03-26T12:31:08.390Z,4.80
2018-03-26T12:32:08.416Z,5.70
2018-03-26T12:33:08.436Z,5.50
2018-03-26T12:34:08.425Z,6.10
2018-03-26T12:35:08.450Z,6.80
2018-03-26T12:36:08.463Z,6.10
2018-03-26T12:37:08.552Z,7.00
2018-03-26T12:38:08.530Z,7.00
2018-03-26T12:39:08.526Z,5.80
2018-03-26T12:40:08.550Z,5.70
2018-03-26T12:41:08.557Z,5.70
2018-03-26T12:42:08.623Z,5.50
2018-03-26T12:43:08.650Z,6.10
2018-03-26T12:44:08.620Z,5.80
2018-03-26T12:45:08.671Z,5.70
2018-03-26T12:46:08.662Z,5.30
2018-03-26T12:47:08.672Z,4.50
2018-03-26T12:48:08.744Z,4.90
2018-03-26T12:49:08.750Z,5.00
2018-03-26T12:50:08.736Z,4.60
2018-03-26T12:51:08.756Z,5.10
2018-03-26T12:52:08.803Z,4.50
2018-03-26T12:53:08.792Z,4.20
2018-03-26T12:54:08.824Z,4.30
2018-03-26T12:55:08.904Z,5.00
2018-03-26T12:56:08.858Z,3.60